createdAt,value
2019-02-08T00:00:03.518Z,75.96
2019-02-08T00:01:03.105Z,83.82
2019-02-08T00:02:03.081Z,90.15
2019-02-08T00:03:03.557Z,77.39
2019-02-08T00:04:03.014Z,81.38
2019-02-08T00:05:03.645Z,92.69
2019-02-08T00:06:02.743Z,92.5
2019-02-08T00:07:03.571Z,92.5
2019-02-08T00:08:03.043Z,92.81
2019-02-08T00:09:03.470Z,100.16
2019-02-08T00:10:03.476Z,84.41
2019-02-08T00:11:03.091Z,93.78
2019-02-08T00:12:02.630Z,90.11
2019-02-08T00:13:03.137Z,89.32
2019-02-08T00:14:03.313Z,87.04
2019-02-08T00:15:03.716Z,84.18
2019-02-08T00:16:03.356Z,87.19
2019-02-08T00:17:03.187Z,90.49
2019-02-08T00:18:02.874Z,87.02
2019-02-08T00:19:02.816Z,92.45
2019-02-08T00:20:03.371Z,86.79
2019-02-08T00:21:02.287Z,88.29
2019-02-08T00:22:03.193Z,85.69
2019-02-08T00:23:02.548Z,84.73
2019-02-08T00:24:03.182Z,89.33
2019-02-08T00:25:03.561Z,82.97
2019-02-08T00:26:02.930Z,90.22
2019-02-08T00:27:03.420Z,84.36
2019-02-08T00:28:02.989Z,81.3
2019-02-08T00:29:03.055Z,83.03
2019-02-08T00:30:02.869Z,74.86
2019-02-08T00:31:03.329Z,79.29
2019-02-08T00:32:03.376Z,80.16
2019-02-08T00:33:02.892Z,80.13
2019-02-08T00:34:03.660Z,81.83
2019-02-08T00:35:03.242Z,81.5
2019-02-08T00:36:03.623Z,75.74
2019-02-08T00:37:02.861Z,76.96
2019-02-08T00:38:03.389Z,65.18
2019-02-08T00:39:03.277Z,73.51
2019-02-08T00:40:02.902Z,76.46
2019-02-08T00:41:03.230Z,71.53
2019-02-08T00:42:02.919Z,77.49
2019-02-08T00:43:03.264Z,71.52
2019-02-08T00:44:02.833Z,69.04
2019-02-08T00:45:03.453Z,63.74
2019-02-08T00:46:03.488Z,66.94
2019-02-08T00:47:03.432Z,73.09
2019-02-08T00:48:02.942Z,72.19
2019-02-08T00:49:03.218Z,65.01
2019-02-08T00:50:03.590Z,72.61
2019-02-08T00:51:02.962Z,77.55
2019-02-08T00:52:03.402Z,62.03
2019-02-08T00:53:48.074Z,62.03
2019-02-08T00:54:03.688Z,62.03
2019-02-08T00:55:03.681Z,63.59
2019-02-08T00:56:03.209Z,64.88
2019-02-08T00:57:03.730Z,73.11
2019-02-08T00:58:03.147Z,73.11
2019-02-08T00:59:03.470Z,61.84
2019-02-08T01:00:02.924Z,58.63
2019-02-08T01:01:03.668Z,58.63
2019-02-08T01:02:02.901Z,58.26
2019-02-08T01:03:03.069Z,79.54
2019-02-08T01:04:03.430Z,56.55
2019-02-08T01:05:01.677Z,66.4
2019-02-08T01:06:03.630Z,62.24
2019-02-08T01:07:02.980Z,59.58
2019-02-08T01:08:03.708Z,56.43
2019-02-08T01:09:03.050Z,58.74
2019-02-08T01:10:03.578Z,53.66
2019-02-08T01:11:02.763Z,70.72
2019-02-08T01:12:03.404Z,66.3
2019-02-08T01:13:02.899Z,55.72
2019-02-08T01:14:03.522Z,56.48
2019-02-08T01:15:02.967Z,52.61
2019-02-08T01:16:03.018Z,53.38
2019-02-08T01:17:03.609Z,64.22
2019-02-08T01:18:03.309Z,63.56
2019-02-08T01:19:02.739Z,45.95
2019-02-08T01:20:03.194Z,54.71
2019-02-08T01:21:03.610Z,53.15
2019-02-08T01:22:03.201Z,52.36
2019-02-08T01:23:03.278Z,52.56
2019-02-08T01:24:02.980Z,45.95
2019-02-08T01:25:03.406Z,48.84
2019-02-08T01:26:02.860Z,50.52
2019-02-08T01:27:02.827Z,44.89
2019-02-08T01:28:02.968Z,58.92
2019-02-08T01:29:02.753Z,53.67
2019-02-08T01:30:02.856Z,62.85
2019-02-08T01:31:03.279Z,51.34
2019-02-08T01:32:03.255Z,58.54
2019-02-08T01:33:03.261Z,57.28
2019-02-08T01:34:02.639Z,53.04
2019-02-08T01:35:03.137Z,59.88
2019-02-08T01:36:02.804Z,69.69
2019-02-08T01:37:03.298Z,52.76
2019-02-08T01:38:03.489Z,49.57
2019-02-08T01:39:03.512Z,49.3
2019-02-08T01:40:03.030Z,51.28
2019-02-08T01:41:03.133Z,46.48
2019-02-08T01:42:02.729Z,57.69
2019-02-08T01:43:03.173Z,54.58
2019-02-08T01:44:03.470Z,51.32
2019-02-08T01:45:02.958Z,55.82
2019-02-08T01:46:03.473Z,71.68
2019-02-08T01:47:02.723Z,71.68
2019-02-08T01:48:03.480Z,53.1
2019-02-08T01:49:03.581Z,45.23
2019-02-08T01:50:02.941Z,45.23
2019-02-08T01:51:03.642Z,49.42
2019-02-08T01:52:03.309Z,52.29
2019-02-08T01:53:02.645Z,52.29
2019-02-08T01:54:03.347Z,55.64
2019-02-08T01:55:03.494Z,58.2
2019-02-08T01:56:03.611Z,50.97
2019-02-08T01:57:03.290Z,43.64
2019-02-08T01:58:03.107Z,43.49
2019-02-08T01:59:03.291Z,49.62
2019-02-08T02:00:02.881Z,52.42
2019-02-08T02:01:02.942Z,48.84
2019-02-08T02:02:02.861Z,48.38
2019-02-08T02:03:03.390Z,46.66
2019-02-08T02:04:02.757Z,52.59
2019-02-08T02:05:03.362Z,45.74
2019-02-08T02:06:03.722Z,51.38
2019-02-08T02:07:03.070Z,51.29
2019-02-08T02:08:03.561Z,52.86
2019-02-08T02:09:02.924Z,53.35
2019-02-08T02:10:03.423Z,43.85
2019-02-08T02:11:03.021Z,54.75
2019-02-08T02:12:03.201Z,54.38
2019-02-08T02:13:03.619Z,48.69
2019-02-08T02:14:03.199Z,53.58
2019-02-08T02:15:03.197Z,50.56
2019-02-08T02:16:04.151Z,56.64
2019-02-08T02:17:02.634Z,50.99
2019-02-08T02:18:03.216Z,46.68
2019-02-08T02:19:03.577Z,46.01
2019-02-08T02:20:03.262Z,51.54
2019-02-08T02:21:03.424Z,52.82
2019-02-08T02:22:03.588Z,41.64
2019-02-08T02:23:03.425Z,42.86
2019-02-08T02:24:03.523Z,46.39
2019-02-08T02:25:03.192Z,47.93
2019-02-08T02:26:02.895Z,55.58
2019-02-08T02:27:03.412Z,50.99
2019-02-08T02:28:02.928Z,49.24
2019-02-08T02:29:03.282Z,44.06
2019-02-08T02:30:03.512Z,48.45
2019-02-08T02:31:03.038Z,52.57
2019-02-08T02:32:03.362Z,44.14
2019-02-08T02:33:03.412Z,47.28
2019-02-08T02:34:03.217Z,46.18
2019-02-08T02:35:03.408Z,46.18
2019-02-08T02:36:02.927Z,48.39
2019-02-08T02:37:03.518Z,52.56
2019-02-08T02:38:03.020Z,52.56
2019-02-08T02:39:03.629Z,50.77
2019-02-08T02:40:03.109Z,44.93
2019-02-08T02:41:03.097Z,52.6
2019-02-08T02:42:03.219Z,41.69
2019-02-08T02:43:03.574Z,45.09
2019-02-08T02:44:03.259Z,41.42
2019-02-08T02:45:03.330Z,56.15
2019-02-08T02:46:02.742Z,50.97
2019-02-08T02:47:03.555Z,43.69
2019-02-08T02:48:03.243Z,48.09
2019-02-08T02:49:03.292Z,50.78
2019-02-08T02:50:02.942Z,46.12
2019-02-08T02:51:03.203Z,47.91
2019-02-08T02:52:02.706Z,51.95
2019-02-08T02:53:03.390Z,52.06
2019-02-08T02:54:04.814Z,45.95
2019-02-08T02:55:03.393Z,52.78
2019-02-08T02:56:03.105Z,46.81
2019-02-08T02:57:03.602Z,49.08
2019-02-08T02:58:02.974Z,49.65
2019-02-08T02:59:03.664Z,43.95
2019-02-08T03:00:03.253Z,46.71
2019-02-08T03:01:03.627Z,50.02
2019-02-08T03:02:03.427Z,46.04
2019-02-08T03:03:02.917Z,48.94
2019-02-08T03:04:02.997Z,50.02
2019-02-08T03:05:02.655Z,43.91
2019-02-08T03:06:03.179Z,49.38
2019-02-08T03:07:03.546Z,51.38
2019-02-08T03:08:02.603Z,48.55
2019-02-08T03:09:03.053Z,44.06
2019-02-08T03:10:03.339Z,49.61
2019-02-08T03:11:02.702Z,59.24
2019-02-08T03:12:02.639Z,49.9
2019-02-08T03:13:03.037Z,44.28
2019-02-08T03:14:03.432Z,46.88
2019-02-08T03:15:03.295Z,66.74
2019-02-08T03:16:02.723Z,47.26
2019-02-08T03:17:03.055Z,46.51
2019-02-08T03:18:03.429Z,44.72
2019-02-08T03:19:02.890Z,56.58
2019-02-08T03:20:03.203Z,45.86
2019-02-08T03:21:02.924Z,45.75
2019-02-08T03:22:03.514Z,50.11
2019-02-08T03:23:02.694Z,50.11
2019-02-08T03:24:03.547Z,51.31
2019-02-08T03:25:03.279Z,43.38
2019-02-08T03:26:03.767Z,43.38
2019-02-08T03:27:02.801Z,44.51
2019-02-08T03:28:03.493Z,44.51
2019-02-08T03:29:03.061Z,44.88
2019-02-08T03:30:03.503Z,71.71
2019-02-08T03:31:03.061Z,47.95
2019-02-08T03:32:03.464Z,56.13
2019-02-08T03:33:03.344Z,42.14
2019-02-08T03:34:02.872Z,51.44
2019-02-08T03:35:02.873Z,36.46
2019-02-08T03:36:03.583Z,42.28
2019-02-08T03:37:02.859Z,47.82
2019-02-08T03:38:03.544Z,42.65
2019-02-08T03:39:03.169Z,47.94
2019-02-08T03:40:03.290Z,49.83
2019-02-08T03:41:03.504Z,55.82
2019-02-08T03:42:03.426Z,42.83
2019-02-08T03:43:03.561Z,44.41
2019-02-08T03:44:02.896Z,42.14
2019-02-08T03:45:02.918Z,50.27
2019-02-08T03:46:03.632Z,42.09
2019-02-08T03:47:02.988Z,47.38
2019-02-08T03:48:03.497Z,44.22
2019-02-08T03:49:03.051Z,48.06
2019-02-08T03:50:02.981Z,42.69
2019-02-08T03:51:03.351Z,52.51
2019-02-08T03:52:03.031Z,47.34
2019-02-08T03:53:03.596Z,45.56
2019-02-08T03:54:03.001Z,55.03
2019-02-08T03:55:03.456Z,45.91
2019-02-08T03:56:03.294Z,47.23
2019-02-08T03:57:02.840Z,59.19
2019-02-08T03:58:03.528Z,64.49
2019-02-08T03:59:02.974Z,51.69
2019-02-08T04:00:03.443Z,48.69
2019-02-08T04:01:03.100Z,49.51
2019-02-08T04:02:03.717Z,55.69
2019-02-08T04:03:03.274Z,48.14
2019-02-08T04:04:02.883Z,64.74
2019-02-08T04:05:03.498Z,50.16
2019-02-08T04:06:02.828Z,52.32
2019-02-08T04:07:02.970Z,50.69
2019-02-08T04:08:03.542Z,47.47
2019-02-08T04:09:03.092Z,52.4
2019-02-08T04:10:03.081Z,48.64
2019-02-08T04:11:03.305Z,48.64
2019-02-08T04:12:02.726Z,58.42
2019-02-08T04:13:03.370Z,46.99
2019-02-08T04:14:03.130Z,46.99
2019-02-08T04:15:03.900Z,65.03
2019-02-08T04:16:03.308Z,65.03
2019-02-08T04:17:03.096Z,46.03
2019-02-08T04:18:03.187Z,47.98
2019-02-08T04:19:03.014Z,55.06
2019-02-08T04:20:03.651Z,57.02
2019-02-08T04:21:03.196Z,55.75
2019-02-08T04:22:03.599Z,51.32
2019-02-08T04:23:03.618Z,55.74
2019-02-08T04:24:03.429Z,49.85
2019-02-08T04:25:03.094Z,48.62
2019-02-08T04:26:03.333Z,50.26
2019-02-08T04:27:02.912Z,56.04
2019-02-08T04:28:03.595Z,49.62
2019-02-08T04:29:03.349Z,50.25
2019-02-08T04:30:02.855Z,56.18
2019-02-08T04:31:03.135Z,52.06
2019-02-08T04:32:02.879Z,49.61
2019-02-08T04:33:03.473Z,50.77
2019-02-08T04:34:02.887Z,51.62
2019-02-08T04:35:03.406Z,57.61
2019-02-08T04:36:02.894Z,59.89
2019-02-08T04:37:03.777Z,60.09
2019-02-08T04:38:02.838Z,51.52
2019-02-08T04:39:03.374Z,62.68
2019-02-08T04:40:03.123Z,57.6
2019-02-08T04:41:03.556Z,50.89
2019-02-08T04:42:03.245Z,60.8
2019-02-08T04:43:03.647Z,50.84
2019-02-08T04:44:02.862Z,44.91
2019-02-08T04:45:02.747Z,53.23
2019-02-08T04:46:03.305Z,49.52
2019-02-08T04:47:02.989Z,44.9
2019-02-08T04:48:03.517Z,51.87
2019-02-08T04:49:02.925Z,42.31
2019-02-08T04:50:03.103Z,46.39
2019-02-08T04:51:02.704Z,45.92
2019-02-08T04:52:03.307Z,45.46
2019-02-08T04:53:02.755Z,52.54
2019-02-08T04:54:03.267Z,54.51
2019-02-08T04:55:03.278Z,53.49
2019-02-08T04:56:03.496Z,50.52
2019-02-08T04:57:02.941Z,45.4
2019-02-08T04:58:03.654Z,52.09
2019-02-08T04:59:03.017Z,50.91
2019-02-08T05:00:03.724Z,49.63
2019-02-08T05:01:03.115Z,50.43
2019-02-08T05:02:03.728Z,52.02
2019-02-08T05:03:03.082Z,44.07
2019-02-08T05:04:02.838Z,44.07
2019-02-08T05:05:03.452Z,45.56
2019-02-08T05:06:02.797Z,53.58
2019-02-08T05:07:02.658Z,53.58
2019-02-08T05:08:03.112Z,53.56
2019-02-08T05:09:03.382Z,55.85
2019-02-08T05:10:03.231Z,55.85
2019-02-08T05:11:02.974Z,50.44
2019-02-08T05:12:03.089Z,53.03
2019-02-08T05:13:02.939Z,50.6
2019-02-08T05:14:03.552Z,48.56
2019-02-08T05:15:03.465Z,51.23
2019-02-08T05:16:02.669Z,49
2019-02-08T05:17:03.444Z,51.84
2019-02-08T05:18:03.373Z,48.8
2019-02-08T05:19:02.790Z,43.82
2019-02-08T05:20:03.393Z,50.78
2019-02-08T05:21:02.917Z,45.99
2019-02-08T05:22:03.557Z,54.66
2019-02-08T05:23:03.127Z,44.82
2019-02-08T05:24:03.738Z,56.75
2019-02-08T05:25:03.339Z,44.23
2019-02-08T05:26:03.604Z,43.49
2019-02-08T05:27:02.560Z,47.72
2019-02-08T05:28:03.526Z,43.99
2019-02-08T05:29:03.035Z,49.69
2019-02-08T05:30:03.701Z,49.59
2019-02-08T05:31:02.768Z,46.69
2019-02-08T05:32:03.257Z,41.44
2019-02-08T05:33:02.986Z,41.41
2019-02-08T05:34:03.251Z,40.76
2019-02-08T05:35:02.795Z,40.89
2019-02-08T05:36:03.479Z,46.08
2019-02-08T05:37:03.028Z,47.75
2019-02-08T05:38:03.678Z,43.31
2019-02-08T05:39:02.927Z,47.24
2019-02-08T05:40:03.461Z,46.02
2019-02-08T05:41:03.142Z,56.53
2019-02-08T05:42:03.736Z,46.85
2019-02-08T05:43:03.047Z,46.88
2019-02-08T05:44:03.468Z,48.25
2019-02-08T05:45:03.059Z,47.14
2019-02-08T05:46:02.839Z,48.86
2019-02-08T05:47:03.259Z,50.46
2019-02-08T05:48:02.805Z,46.75
2019-02-08T05:49:02.612Z,41.52
2019-02-08T05:50:03.120Z,41.52
2019-02-08T05:51:02.839Z,44.11
2019-02-08T05:52:03.606Z,43
2019-02-08T05:53:02.798Z,43
2019-02-08T05:54:03.233Z,45.84
2019-02-08T05:55:02.950Z,45.84
2019-02-08T05:56:03.486Z,44.2
2019-02-08T05:57:03.558Z,41.65
2019-02-08T05:58:03.321Z,41.65
2019-02-08T05:59:02.860Z,48.91
2019-02-08T06:00:03.357Z,45.94
2019-02-08T06:01:02.865Z,50.88
2019-02-08T06:02:02.726Z,40.88
2019-02-08T06:03:03.515Z,46.3
2019-02-08T06:04:02.762Z,48.32
2019-02-08T06:05:03.285Z,48.25
2019-02-08T06:06:03.258Z,45.05
2019-02-08T06:07:02.924Z,46.08
2019-02-08T06:08:03.379Z,42.7
2019-02-08T06:09:02.750Z,49.26
2019-02-08T06:10:03.094Z,43.71
2019-02-08T06:11:03.639Z,49.12
2019-02-08T06:12:02.959Z,49.79
2019-02-08T06:13:03.924Z,44.84
2019-02-08T06:14:03.209Z,55.69
2019-02-08T06:15:03.720Z,46.28
2019-02-08T06:16:03.038Z,40.61
2019-02-08T06:17:02.852Z,53.01
2019-02-08T06:18:02.840Z,44.88
2019-02-08T06:19:03.351Z,51.23
2019-02-08T06:20:02.894Z,50.41
2019-02-08T06:21:03.470Z,42.84
2019-02-08T06:22:02.848Z,50.36
2019-02-08T06:23:03.109Z,50.19
2019-02-08T06:24:03.637Z,44.94
2019-02-08T06:25:04.536Z,46.33
2019-02-08T06:26:02.774Z,46.94
2019-02-08T06:27:02.886Z,38.83
2019-02-08T06:28:03.227Z,44.86
2019-02-08T06:29:02.777Z,48.93
2019-02-08T06:30:03.103Z,46.96
2019-02-08T06:31:02.481Z,41.48
2019-02-08T06:32:03.079Z,40.61
2019-02-08T06:33:03.146Z,36.45
2019-02-08T06:34:03.480Z,42.18
2019-02-08T06:35:03.063Z,43.84
2019-02-08T06:36:03.492Z,43.41
2019-02-08T06:37:03.018Z,41.72
2019-02-08T06:38:03.443Z,40.74
2019-02-08T06:39:02.926Z,41.69
2019-02-08T06:40:03.561Z,41.57
2019-02-08T06:41:03.155Z,41.57
2019-02-08T06:42:03.178Z,41.61
2019-02-08T06:43:02.763Z,47.92
2019-02-08T06:44:03.177Z,47.92
2019-02-08T06:45:02.933Z,43.93
2019-02-08T06:46:03.269Z,43.93
2019-02-08T06:47:02.805Z,39.58
2019-02-08T06:48:03.521Z,40.23
2019-02-08T06:49:03.097Z,44.15
2019-02-08T06:50:03.475Z,46.29
2019-02-08T06:51:04.058Z,43.61
2019-02-08T06:52:03.477Z,47.66
2019-02-08T06:53:03.084Z,40.53
2019-02-08T06:54:03.435Z,40.34
2019-02-08T06:55:10.361Z,45.35
2019-02-08T06:56:03.219Z,49.15
2019-02-08T06:57:02.869Z,43.71
2019-02-08T06:58:03.395Z,37.21
2019-02-08T06:59:03.744Z,43.62
2019-02-08T07:00:03.544Z,34.9
2019-02-08T07:01:02.731Z,44.95
2019-02-08T07:02:03.320Z,47.42
2019-02-08T07:03:03.688Z,38.85
2019-02-08T07:04:03.217Z,46.24
2019-02-08T07:05:03.721Z,42.74
2019-02-08T07:06:03.255Z,49.04
2019-02-08T07:07:02.780Z,40.91
2019-02-08T07:08:03.103Z,43.18
2019-02-08T07:09:03.401Z,39.58
2019-02-08T07:10:02.670Z,34.75
2019-02-08T07:11:03.293Z,35.32
2019-02-08T07:12:03.070Z,48.5
2019-02-08T07:13:03.435Z,33.91
2019-02-08T07:14:02.588Z,34.96
2019-02-08T07:15:03.279Z,37.81
2019-02-08T07:16:03.441Z,40.17
2019-02-08T07:17:03.128Z,42.96
2019-02-08T07:18:03.747Z,36.35
2019-02-08T07:19:03.202Z,38.12
2019-02-08T07:20:03.544Z,33.99
2019-02-08T07:21:03.006Z,35.92
2019-02-08T07:22:03.468Z,40.42
2019-02-08T07:23:03.164Z,35.85
2019-02-08T07:24:03.315Z,44.34
2019-02-08T07:25:02.932Z,48.67
2019-02-08T07:26:03.419Z,41.03
2019-02-08T07:27:02.904Z,37.25
2019-02-08T07:28:03.438Z,37.47
2019-02-08T07:29:03.085Z,40.99
2019-02-08T07:30:03.463Z,40.99
2019-02-08T07:31:03.083Z,37.65
2019-02-08T07:32:03.412Z,37.65
2019-02-08T07:33:02.635Z,41.65
2019-02-08T07:34:03.424Z,39.37
2019-02-08T07:35:02.850Z,39.37
2019-02-08T07:36:03.236Z,37.57
2019-02-08T07:37:03.033Z,37.57
2019-02-08T07:38:03.023Z,33.72
2019-02-08T07:39:02.786Z,39.55
2019-02-08T07:40:03.275Z,32.66
2019-02-08T07:41:03.643Z,40.36
2019-02-08T07:42:03.305Z,32.64
2019-02-08T07:43:03.609Z,35.98
2019-02-08T07:44:01.836Z,45.85
2019-02-08T07:45:03.570Z,34.64
2019-02-08T07:46:02.859Z,40.05
2019-02-08T07:47:03.398Z,37.98
2019-02-08T07:48:02.758Z,43.49
2019-02-08T07:49:03.487Z,37.46
2019-02-08T07:50:03.640Z,43.16
2019-02-08T07:51:03.160Z,48.29
2019-02-08T07:52:03.280Z,40.59
2019-02-08T07:53:03.080Z,43.55
2019-02-08T07:54:03.594Z,43.69
2019-02-08T07:55:02.966Z,41.39
2019-02-08T07:56:03.431Z,41.21
2019-02-08T07:57:02.729Z,48.36
2019-02-08T07:58:03.246Z,36.14
2019-02-08T07:59:03.536Z,41.08
2019-02-08T08:00:03.039Z,49.01
2019-02-08T08:01:02.842Z,47.94
2019-02-08T08:02:03.338Z,41.06
2019-02-08T08:03:02.764Z,43.75
2019-02-08T08:04:03.241Z,40.17
2019-02-08T08:05:03.806Z,46.05
2019-02-08T08:06:03.150Z,58.02
2019-02-08T08:07:03.457Z,43.14
2019-02-08T08:08:03.011Z,50.39
2019-02-08T08:09:02.824Z,49.19
2019-02-08T08:10:03.170Z,41.96
2019-02-08T08:11:03.730Z,48.4
2019-02-08T08:12:03.245Z,51.2
2019-02-08T08:13:03.185Z,54.79
2019-02-08T08:14:02.804Z,51.04
2019-02-08T08:15:03.309Z,44.42
2019-02-08T08:16:02.744Z,42.49
2019-02-08T08:17:03.312Z,50.01
2019-02-08T08:18:02.512Z,48.34
2019-02-08T08:19:03.295Z,47.47
2019-02-08T08:20:02.717Z,41.83
2019-02-08T08:21:03.396Z,41.83
2019-02-08T08:22:03.645Z,31.48
2019-02-08T08:23:03.164Z,31.48
2019-02-08T08:24:03.409Z,32.49
2019-02-08T08:25:02.967Z,36.27
2019-02-08T08:26:03.334Z,35.15
2019-02-08T08:27:02.763Z,35.15
2019-02-08T08:28:03.355Z,36.92
2019-02-08T08:29:02.770Z,39.81
2019-02-08T08:30:03.313Z,36.03
2019-02-08T08:31:03.383Z,33.93
2019-02-08T08:32:03.041Z,34.39
2019-02-08T08:33:03.414Z,31.94
2019-02-08T08:34:02.797Z,34.44
2019-02-08T08:35:03.100Z,40.92
2019-02-08T08:36:03.519Z,38.64
2019-02-08T08:37:02.905Z,34.84
2019-02-08T08:38:03.372Z,34.41
2019-02-08T08:39:02.873Z,35.48
2019-02-08T08:40:03.559Z,35.29
2019-02-08T08:41:02.844Z,31.25
2019-02-08T08:42:02.930Z,34.73
2019-02-08T08:43:02.774Z,29
2019-02-08T08:44:02.728Z,29.35
2019-02-08T08:45:03.623Z,33.91
2019-02-08T08:46:02.792Z,31.42
2019-02-08T08:47:03.599Z,31.01
2019-02-08T08:48:02.729Z,29.08
2019-02-08T08:49:03.206Z,29.46
2019-02-08T08:50:02.651Z,29.94
2019-02-08T08:51:03.548Z,25.76
2019-02-08T08:52:03.083Z,30.64
2019-02-08T08:53:03.335Z,26.91
2019-02-08T08:54:02.701Z,25.46
2019-02-08T08:55:03.192Z,29.98
2019-02-08T08:56:03.779Z,24.81
2019-02-08T08:57:02.871Z,26.61
2019-02-08T08:58:02.563Z,23.74
2019-02-08T08:59:03.293Z,22.39
2019-02-08T09:00:02.728Z,20.87
2019-02-08T09:01:03.141Z,25.08
2019-02-08T09:02:03.469Z,26.35
2019-02-08T09:03:03.634Z,21.92
2019-02-08T09:04:02.843Z,23.89
2019-02-08T09:05:03.406Z,20.67
2019-02-08T09:06:08.201Z,22.84
2019-02-08T09:07:03.739Z,23.64
2019-02-08T09:08:02.924Z,22.88
2019-02-08T09:09:03.195Z,18.36
2019-02-08T09:10:03.194Z,19.16
2019-02-08T09:11:03.422Z,22.14
2019-02-08T09:12:02.902Z,22.14
2019-02-08T09:13:03.290Z,18.68
2019-02-08T09:14:02.751Z,19.59
2019-02-08T09:15:03.180Z,19.59
2019-02-08T09:16:03.007Z,23.94
2019-02-08T09:17:03.274Z,21.26
2019-02-08T09:18:02.771Z,26.76
2019-02-08T09:19:03.372Z,26.76
2019-02-08T09:20:02.966Z,22.51
2019-02-08T09:21:03.354Z,21.31
2019-02-08T09:22:02.892Z,21.31
2019-02-08T09:23:03.187Z,21.84
2019-02-08T09:24:02.812Z,18.51
2019-02-08T09:25:03.176Z,20.92
2019-02-08T09:26:02.514Z,17.89
2019-02-08T09:27:03.095Z,22.05
2019-02-08T09:28:03.032Z,20.44
2019-02-08T09:29:03.044Z,20.45
2019-02-08T09:30:03.066Z,20.63
2019-02-08T09:31:03.192Z,20.59
2019-02-08T09:32:03.215Z,18.46
2019-02-08T09:33:03.245Z,20.03
2019-02-08T09:34:03.063Z,19.95
2019-02-08T09:35:02.915Z,23.35
2019-02-08T09:36:02.858Z,18.99
2019-02-08T09:37:03.344Z,16.46
2019-02-08T09:38:03.429Z,20.01
2019-02-08T09:39:02.548Z,18.04
2019-02-08T09:40:03.473Z,15.29
2019-02-08T09:41:03.022Z,16.59
2019-02-08T09:42:03.364Z,20.36
2019-02-08T09:43:02.874Z,20.59
2019-02-08T09:44:03.364Z,16.83
2019-02-08T09:45:03.319Z,15.75
2019-02-08T09:46:03.085Z,15.56
2019-02-08T09:47:03.483Z,16.83
2019-02-08T09:48:02.901Z,15.12
2019-02-08T09:49:03.665Z,15.38
2019-02-08T09:50:02.994Z,19.25
2019-02-08T09:51:02.594Z,16.49
2019-02-08T09:52:03.509Z,16.52
2019-02-08T09:53:03.416Z,16.22
2019-02-08T09:54:03.406Z,13.26
2019-02-08T09:55:03.366Z,15.14
2019-02-08T09:56:02.883Z,12.23
2019-02-08T09:57:03.521Z,12.79
2019-02-08T09:58:02.818Z,11.31
2019-02-08T09:59:03.276Z,10.12
2019-02-08T10:00:03.620Z,10.12
2019-02-08T10:01:03.313Z,14.28
2019-02-08T10:02:02.515Z,15.19
2019-02-08T10:03:03.212Z,15.19
2019-02-08T10:04:02.726Z,10.98
2019-02-08T10:05:03.761Z,10.98
2019-02-08T10:06:02.758Z,11.14
2019-02-08T10:07:02.569Z,17.06
2019-02-08T10:08:02.953Z,13.58
2019-02-08T10:09:03.575Z,13.21
2019-02-08T10:10:03.184Z,12.46
2019-02-08T10:11:03.384Z,12.66
2019-02-08T10:12:02.813Z,10.83
2019-02-08T10:13:03.236Z,12.96
2019-02-08T10:14:03.021Z,12.92
2019-02-08T10:15:04.113Z,21.08
2019-02-08T10:16:03.012Z,15.7
2019-02-08T10:17:03.600Z,19.04
2019-02-08T10:18:03.221Z,19.52
2019-02-08T10:19:03.655Z,23.55
2019-02-08T10:20:03.088Z,22.44
2019-02-08T10:21:02.811Z,20.23
2019-02-08T10:22:02.955Z,27.57
2019-02-08T10:23:03.429Z,20.55
2019-02-08T10:24:02.608Z,17.55
2019-02-08T10:25:03.550Z,18.36
2019-02-08T10:26:05.334Z,18.97
2019-02-08T10:27:02.670Z,14.9
2019-02-08T10:28:02.881Z,18.52
2019-02-08T10:29:03.190Z,18.05
2019-02-08T10:30:01.879Z,17.71
2019-02-08T10:31:03.597Z,26.76
2019-02-08T10:32:03.360Z,18.94
2019-02-08T10:33:02.865Z,18.35
2019-02-08T10:34:03.337Z,16.94
2019-02-08T10:35:03.031Z,15.64
2019-02-08T10:36:03.682Z,13.28
2019-02-08T10:37:02.957Z,18.75
2019-02-08T10:38:02.861Z,12.36
2019-02-08T10:39:03.555Z,12.04
2019-02-08T10:40:02.967Z,11.75
2019-02-08T10:41:03.361Z,10.79
2019-02-08T10:42:02.914Z,11.76
2019-02-08T10:43:03.674Z,10.77
2019-02-08T10:44:03.763Z,17.2
2019-02-08T10:45:03.365Z,12.64
2019-02-08T10:46:02.734Z,10.85
2019-02-08T10:47:03.317Z,18.68
2019-02-08T10:48:02.513Z,14.59
2019-02-08T10:49:02.998Z,17.27
2019-02-08T10:50:03.599Z,18.28
2019-02-08T10:51:03.459Z,16.64
2019-02-08T10:52:02.867Z,13.97
2019-02-08T10:53:03.482Z,17.17
2019-02-08T10:54:02.943Z,18.06
2019-02-08T10:55:03.451Z,21.43
2019-02-08T10:56:02.960Z,21.43
2019-02-08T10:57:02.913Z,17.86
2019-02-08T10:58:02.648Z,19.28
2019-02-08T10:59:03.417Z,19.28
2019-02-08T11:00:03.085Z,21.75
2019-02-08T11:01:03.420Z,25.64
2019-02-08T11:02:02.731Z,24.84
2019-02-08T11:03:03.150Z,17.7
2019-02-08T11:04:02.933Z,21.75
2019-02-08T11:05:03.529Z,20.19
2019-02-08T11:06:03.073Z,21.01
2019-02-08T11:07:03.421Z,15.52
2019-02-08T11:08:03.065Z,22.02
2019-02-08T11:09:03.452Z,23.34
2019-02-08T11:10:02.972Z,21.04
2019-02-08T11:11:03.335Z,29.35
2019-02-08T11:12:03.014Z,33.33
2019-02-08T11:13:03.370Z,31.3
2019-02-08T11:14:02.608Z,34.35
2019-02-08T11:15:03.074Z,34.14
2019-02-08T11:16:03.095Z,37.84
2019-02-08T11:17:03.292Z,44.14
2019-02-08T11:18:03.015Z,39.75
2019-02-08T11:19:03.491Z,31.74
2019-02-08T11:20:03.260Z,25.06
2019-02-08T11:21:02.718Z,31.36
2019-02-08T11:22:03.202Z,28.68
2019-02-08T11:23:03.598Z,38.18
2019-02-08T11:24:03.248Z,31.92
2019-02-08T11:25:02.847Z,29.15
2019-02-08T11:26:03.333Z,27.26
2019-02-08T11:27:02.739Z,27.05
2019-02-08T11:28:03.196Z,32.85
2019-02-08T11:29:03.604Z,28.27
2019-02-08T11:30:03.352Z,29.59
2019-02-08T11:31:03.156Z,31.91
2019-02-08T11:32:03.187Z,27.39
2019-02-08T11:33:03.011Z,24.78
2019-02-08T11:34:03.755Z,29.08
2019-02-08T11:35:02.935Z,22.78
2019-02-08T11:36:02.901Z,25.5
2019-02-08T11:37:03.272Z,26.71
2019-02-08T11:38:02.856Z,26.68
2019-02-08T11:39:03.015Z,23.55
2019-02-08T11:40:03.734Z,23.55
2019-02-08T11:41:03.071Z,28.15
2019-02-08T11:42:02.815Z,28.15
2019-02-08T11:43:03.264Z,59.35
2019-02-08T11:44:03.594Z,39.3
2019-02-08T11:45:03.308Z,39.3
2019-02-08T11:46:02.698Z,27.68
2019-02-08T11:47:03.246Z,27.66
2019-02-08T11:48:03.542Z,37.55
2019-02-08T11:49:03.108Z,30.58
2019-02-08T11:50:03.565Z,23.36
2019-02-08T11:51:03.382Z,23.91
2019-02-08T11:52:02.935Z,23.42
2019-02-08T11:53:03.383Z,21.15
2019-02-08T11:54:02.869Z,27.64
2019-02-08T11:55:03.644Z,20.84
2019-02-08T11:56:02.829Z,26.6
2019-02-08T11:57:03.564Z,27.11
2019-02-08T11:58:03.146Z,21.17
2019-02-08T11:59:03.628Z,30.08
2019-02-08T12:00:03.183Z,29.19
2019-02-08T12:01:02.794Z,27.81
2019-02-08T12:02:03.154Z,20.09
2019-02-08T12:03:02.669Z,23.11
2019-02-08T12:04:03.615Z,24.41
2019-02-08T12:05:03.548Z,25.23
2019-02-08T12:06:02.759Z,21.93
2019-02-08T12:07:03.524Z,24.29
2019-02-08T12:08:02.739Z,22.91
2019-02-08T12:09:03.473Z,17.49
2019-02-08T12:10:03.025Z,12.95
2019-02-08T12:11:03.218Z,15.51
2019-02-08T12:12:02.722Z,10.01
2019-02-08T12:13:03.188Z,10.13
2019-02-08T12:14:03.514Z,18.38
2019-02-08T12:15:03.291Z,18.38
2019-02-08T12:16:03.694Z,16.39
2019-02-08T12:17:03.126Z,23.03
2019-02-08T12:18:03.246Z,22.5
2019-02-08T12:19:02.813Z,20.62
2019-02-08T12:20:03.456Z,23.35
2019-02-08T12:21:02.992Z,23.12
2019-02-08T12:22:03.350Z,27.88
2019-02-08T12:23:03.542Z,20.26
2019-02-08T12:24:03.185Z,22.17
2019-02-08T12:25:03.576Z,22.86
2019-02-08T12:26:02.898Z,23.79
2019-02-08T12:27:03.601Z,21.94
2019-02-08T12:28:02.921Z,20.55
2019-02-08T12:29:03.246Z,17.71
2019-02-08T12:30:03.650Z,24.62
2019-02-08T12:31:03.060Z,23.41
2019-02-08T12:32:02.670Z,19.48
2019-02-08T12:33:03.230Z,19.48
2019-02-08T12:34:03.602Z,21.25
2019-02-08T12:35:02.855Z,23.52
2019-02-08T12:36:03.219Z,23.52
2019-02-08T12:37:03.513Z,23.11
2019-02-08T12:38:03.235Z,24.48
2019-02-08T12:39:04.992Z,26.84
2019-02-08T12:40:03.378Z,21.89
2019-02-08T12:41:09.598Z,30.38
2019-02-08T12:42:03.024Z,25.14
2019-02-08T12:43:03.571Z,23.88
2019-02-08T12:44:03.108Z,27.33
2019-02-08T12:45:03.258Z,25.8
2019-02-08T12:46:03.155Z,23.22
2019-02-08T12:47:02.989Z,32.51
2019-02-08T12:48:02.776Z,28.87
2019-02-08T12:49:03.131Z,28.45
2019-02-08T12:50:02.807Z,28.17
2019-02-08T12:51:03.666Z,27.68
2019-02-08T12:52:02.849Z,22.82
2019-02-08T12:53:03.436Z,27.98
2019-02-08T12:54:02.816Z,24.36